sensor_id;sensor_type;location;lat;lon;timestamp;pressure;altitude;pressure_sealevel;temperature;humidity
11212;BME280;5663;50.864;12.096;2023-02-25T00:00:36;97631.78;;;5.69;72.06
11212;BME280;5663;50.864;12.096;2023-02-25T00:03:04;97664.97;;;5.89;72.13
11212;BME280;5663;50.864;12.096;2023-02-25T00:05:32;97664.97;;;5.89;72.17
11212;BME280;5663;50.864;12.096;2023-02-25T00:08:00;97650.59;;;5.85;72.02
11212;BME280;5663;50.864;12.096;2023-02-25T00:10:28;97664.66;;;5.96;72.04
11212;BME280;5663;50.864;12.096;2023-02-25T00:12:58;97658.91;;;5.90;72.19
11212;BME280;5663;50.864;12.096;2023-02-25T00:15:26;97655.97;;;5.97;72.08
11212;BME280;5663;50.864;12.096;2023-02-25T00:17:54;97668.31;;;5.91;71.93
11212;BME280;5663;50.864;12.096;2023-02-25T00:20:22;97658.34;;;5.85;72.03
11212;BME280;5663;50.864;12.096;2023-02-25T00:22:51;97667.41;;;5.92;72.09
11212;BME280;5663;50.864;12.096;2023-02-25T00:25:20;97667.47;;;5.91;72.38
11212;BME280;5663;50.864;12.096;2023-02-25T00:27:47;97689.78;;;5.92;72.00
11212;BME280;5663;50.864;12.096;2023-02-25T00:30:17;97672.72;;;5.89;72.29
11212;BME280;5663;50.864;12.096;2023-02-25T00:32:44;97672.63;;;5.91;72.26
11212;BME280;5663;50.864;12.096;2023-02-25T00:35:12;97677.16;;;5.87;72.35
11212;BME280;5663;50.864;12.096;2023-02-25T00:37:40;97674.75;;;5.84;72.36
11212;BME280;5663;50.864;12.096;2023-02-25T00:40:09;97659.38;;;5.83;72.27
11212;BME280;5663;50.864;12.096;2023-02-25T00:42:40;97666.53;;;5.78;72.30
11212;BME280;5663;50.864;12.096;2023-02-25T00:45:09;97659.81;;;5.75;72.37
11212;BME280;5663;50.864;12.096;2023-02-25T00:47:39;97647.38;;;5.67;72.33
11212;BME280;5663;50.864;12.096;2023-02-25T00:50:08;97655.09;;;5.67;72.39
11212;BME280;5663;50.864;12.096;2023-02-25T00:52:36;97623.47;;;5.50;72.24
11212;BME280;5663;50.864;12.096;2023-02-25T00:55:05;97649.28;;;5.64;72.24
11212;BME280;5663;50.864;12.096;2023-02-25T00:57:33;97654.81;;;5.58;72.32
11212;BME280;5663;50.864;12.096;2023-02-25T01:00:01;97659.31;;;5.54;71.95
11212;BME280;5663;50.864;12.096;2023-02-25T01:02:34;97659.31;;;5.54;72.13
11212;BME280;5663;50.864;12.096;2023-02-25T01:05:04;97651.13;;;5.48;71.88
11212;BME280;5663;50.864;12.096;2023-02-25T01:07:32;97655.00;;;5.55;71.68
11212;BME280;5663;50.864;12.096;2023-02-25T01:10:00;97651.66;;;5.53;71.80
11212;BME280;5663;50.864;12.096;2023-02-25T01:12:28;97652.59;;;5.52;71.88
11212;BME280;5663;50.864;12.096;2023-02-25T01:14:57;97659.22;;;5.56;71.60
11212;BME280;5663;50.864;12.096;2023-02-25T01:17:24;97660.97;;;5.55;71.56
11212;BME280;5663;50.864;12.096;2023-02-25T01:19:52;97667.13;;;5.53;71.45
11212;BME280;5663;50.864;12.096;2023-02-25T01:22:22;97669.63;;;5.54;71.72
11212;BME280;5663;50.864;12.096;2023-02-25T01:24:49;97665.13;;;5.58;71.28
11212;BME280;5663;50.864;12.096;2023-02-25T01:27:17;97663.47;;;5.57;71.24
11212;BME280;5663;50.864;12.096;2023-02-25T01:29:45;97665.94;;;5.58;71.05
11212;BME280;5663;50.864;12.096;2023-02-25T01:32:13;97669.38;;;5.59;71.04
11212;BME280;5663;50.864;12.096;2023-02-25T01:34:41;97670.28;;;5.58;71.19
11212;BME280;5663;50.864;12.096;2023-02-25T01:37:09;97674.59;;;5.57;71.20
11212;BME280;5663;50.864;12.096;2023-02-25T01:39:39;97668.63;;;5.57;71.31
11212;BME280;5663;50.864;12.096;2023-02-25T01:42:12;97670.47;;;5.55;71.56
11212;BME280;5663;50.864;12.096;2023-02-25T01:47:48;97660.59;;;5.47;71.45
11212;BME280;5663;50.864;12.096;2023-02-25T01:50:17;97677.09;;;5.59;71.41
11212;BME280;5663;50.864;12.096;2023-02-25T01:52:45;97678.75;;;5.60;71.56
11212;BME280;5663;50.864;12.096;2023-02-25T01:55:15;97673.59;;;5.60;71.47
11212;BME280;5663;50.864;12.096;2023-02-25T01:57:43;97670.91;;;5.61;71.61
11212;BME280;5663;50.864;12.096;2023-02-25T02:00:12;97673.59;;;5.60;71.73
11212;BME280;5663;50.864;12.096;2023-02-25T02:02:42;97675.44;;;5.58;71.46
11212;BME280;5663;50.864;12.096;2023-02-25T02:05:11;97675.44;;;5.58;71.51
11212;BME280;5663;50.864;12.096;2023-02-25T02:07:39;97678.94;;;5.57;71.85
11212;BME280;5663;50.864;12.096;2023-02-25T02:10:09;97647.22;;;5.40;71.26
11212;BME280;5663;50.864;12.096;2023-02-25T02:12:40;97643.72;;;5.41;71.25
11212;BME280;5663;50.864;12.096;2023-02-25T02:15:12;97674.44;;;5.60;71.53
11212;BME280;5663;50.864;12.096;2023-02-25T02:17:43;97684.75;;;5.60;71.32
11212;BME280;5663;50.864;12.096;2023-02-25T02:20:15;97674.53;;;5.59;71.55
11212;BME280;5663;50.864;12.096;2023-02-25T02:29:24;97669.94;;;5.64;71.12
11212;BME280;5663;50.864;12.096;2023-02-25T02:32:07;97670.09;;;5.61;71.05
11212;BME280;5663;50.864;12.096;2023-02-25T02:37:28;97671.94;;;5.59;71.44
11212;BME280;5663;50.864;12.096;2023-02-25T02:40:06;97682.44;;;5.56;71.17
11212;BME280;5663;50.864;12.096;2023-02-25T02:42:43;97670.47;;;5.55;71.37
11212;BME280;5663;50.864;12.096;2023-02-25T02:45:19;97658.47;;;5.54;71.53
11212;BME280;5663;50.864;12.096;2023-02-25T02:47:54;97651.44;;;5.41;71.37
11212;BME280;5663;50.864;12.096;2023-02-25T02:50:28;97671.38;;;5.54;71.17
11212;BME280;5663;50.864;12.096;2023-02-25T02:53:02;97677.44;;;5.53;71.46
11212;BME280;5663;50.864;12.096;2023-02-25T02:55:35;97680.94;;;5.52;71.57
11212;BME280;5663;50.864;12.096;2023-02-25T02:58:06;97665.16;;;5.42;71.45
11212;BME280;5663;50.864;12.096;2023-02-25T03:00:39;97672.41;;;5.51;71.52
11212;BME280;5663;50.864;12.096;2023-02-25T03:03:13;97587.19;;;4.94;71.22
11212;BME280;5663;50.864;12.096;2023-02-25T03:05:44;97680.84;;;5.53;71.25
11212;BME280;5663;50.864;12.096;2023-02-25T03:08:16;97691.09;;;5.55;71.27
11212;BME280;5663;50.864;12.096;2023-02-25T03:10:45;97685.09;;;5.54;70.99
11212;BME280;5663;50.864;12.096;2023-02-25T03:13:14;97685.75;;;5.58;71.23
11212;BME280;5663;50.864;12.096;2023-02-25T03:15:43;97625.50;;;5.14;70.95
11212;BME280;5663;50.864;12.096;2023-02-25T03:18:22;97690.91;;;5.58;71.16
11212;BME280;5663;50.864;12.096;2023-02-25T03:20:53;97687.59;;;5.56;70.85
11212;BME280;5663;50.864;12.096;2023-02-25T03:23:28;97690.91;;;5.58;70.83
11212;BME280;5663;50.864;12.096;2023-02-25T03:26:02;97692.56;;;5.59;71.09
11212;BME280;5663;50.864;12.096;2023-02-25T03:28:37;97690.91;;;5.58;71.26
11212;BME280;5663;50.864;12.096;2023-02-25T03:31:08;97619.53;;;5.14;71.00
11212;BME280;5663;50.864;12.096;2023-02-25T03:33:42;97663.25;;;5.46;71.08
11212;BME280;5663;50.864;12.096;2023-02-25T03:36:17;97689.06;;;5.60;70.75
11212;BME280;5663;50.864;12.096;2023-02-25T03:38:49;97691.81;;;5.57;71.02
11212;BME280;5663;50.864;12.096;2023-02-25T03:41:19;97688.69;;;5.52;70.51
11212;BME280;5663;50.864;12.096;2023-02-25T03:43:52;97693.41;;;5.59;70.46
11212;BME280;5663;50.864;12.096;2023-02-25T03:46:22;97690.91;;;5.58;70.56
11212;BME280;5663;50.864;12.096;2023-02-25T03:48:54;97691.91;;;5.55;70.88
11212;BME280;5663;50.864;12.096;2023-02-25T03:51:27;97684.25;;;5.54;70.85
11212;BME280;5663;50.864;12.096;2023-02-25T03:53:56;97694.41;;;5.57;70.76
11212;BME280;5663;50.864;12.096;2023-02-25T03:56:24;97699.72;;;5.54;70.37
11212;BME280;5663;50.864;12.096;2023-02-25T03:58:52;97710.69;;;5.57;70.35
11212;BME280;5663;50.864;12.096;2023-02-25T04:01:24;97704.72;;;5.57;70.43
11212;BME280;5663;50.864;12.096;2023-02-25T04:03:54;97708.22;;;5.56;70.32
11212;BME280;5663;50.864;12.096;2023-02-25T04:06:23;97710.97;;;5.53;70.25
11212;BME280;5663;50.864;12.096;2023-02-25T04:08:51;97694.19;;;5.46;70.01
11212;BME280;5663;50.864;12.096;2023-02-25T04:11:19;97708.22;;;5.56;70.26
11212;BME280;5663;50.864;12.096;2023-02-25T04:13:46;97718.53;;;5.56;69.94
11212;BME280;5663;50.864;12.096;2023-02-25T04:16:15;97706.56;;;5.55;70.00
11212;BME280;5663;50.864;12.096;2023-02-25T04:18:42;97716.03;;;5.54;69.81
11212;BME280;5663;50.864;12.096;2023-02-25T04:21:25;97685.50;;;5.32;69.58
11212;BME280;5663;50.864;12.096;2023-02-25T04:23:53;97715.13;;;5.55;69.56
11212;BME280;5663;50.864;12.096;2023-02-25T04:26:21;97729.66;;;5.56;69.52
11212;BME280;5663;50.864;12.096;2023-02-25T04:28:49;97722.84;;;5.55;69.50
11212;BME280;5663;50.864;12.096;2023-02-25T04:31:17;97723.31;;;5.62;69.96
11212;BME280;5663;50.864;12.096;2023-02-25T04:33:44;97732.75;;;5.63;69.68
11212;BME280;5663;50.864;12.096;2023-02-25T04:36:24;97732.81;;;5.61;69.58
11212;BME280;5663;50.864;12.096;2023-02-25T04:38:54;97728.47;;;5.62;69.76
11212;BME280;5663;50.864;12.096;2023-02-25T04:41:22;97729.28;;;5.62;69.69
11212;BME280;5663;50.864;12.096;2023-02-25T04:43:50;97727.56;;;5.63;69.96
11212;BME280;5663;50.864;12.096;2023-02-25T04:46:18;97723.31;;;5.62;69.90
11212;BME280;5663;50.864;12.096;2023-02-25T04:48:46;97735.66;;;5.57;70.13
11212;BME280;5663;50.864;12.096;2023-02-25T04:51:14;97728.66;;;5.59;69.84
11212;BME280;5663;50.864;12.096;2023-02-25T04:53:43;97721.84;;;5.58;70.08
11212;BME280;5663;50.864;12.096;2023-02-25T04:56:12;97730.31;;;5.60;69.87
11212;BME280;5663;50.864;12.096;2023-02-25T04:58:40;97740.81;;;5.57;69.98
11212;BME280;5663;50.864;12.096;2023-02-25T05:01:08;97738.50;;;5.52;70.07
11212;BME280;5663;50.864;12.096;2023-02-25T05:03:37;97736.19;;;5.48;70.62
11212;BME280;5663;50.864;12.096;2023-02-25T05:06:06;97746.50;;;5.48;70.71
11212;BME280;5663;50.864;12.096;2023-02-25T05:08:34;97743.25;;;5.44;70.48
11212;BME280;5663;50.864;12.096;2023-02-25T05:11:04;97747.75;;;5.40;70.91
11212;BME280;5663;50.864;12.096;2023-02-25T05:13:35;97743.78;;;5.35;70.98
11212;BME280;5663;50.864;12.096;2023-02-25T05:16:04;97754.16;;;5.33;71.36
11212;BME280;5663;50.864;12.096;2023-02-25T05:18:35;97747.50;;;5.29;71.49
11212;BME280;5663;50.864;12.096;2023-02-25T05:21:05;97756.00;;;5.31;71.33
11212;BME280;5663;50.864;12.096;2023-02-25T05:23:34;97756.00;;;5.31;71.55
11212;BME280;5663;50.864;12.096;2023-02-25T05:26:05;97758.66;;;5.30;71.86
11212;BME280;5663;50.864;12.096;2023-02-25T05:28:33;97761.31;;;5.28;71.98
11212;BME280;5663;50.864;12.096;2023-02-25T05:31:04;97757.97;;;5.26;71.70
11212;BME280;5663;50.864;12.096;2023-02-25T05:33:32;97764.00;;;5.27;71.89
11212;BME280;5663;50.864;12.096;2023-02-25T05:36:00;97767.31;;;5.29;71.95
11212;BME280;5663;50.864;12.096;2023-02-25T05:38:28;97768.13;;;5.29;72.03
11212;BME280;5663;50.864;12.096;2023-02-25T05:40:58;97778.59;;;5.26;72.36
11212;BME280;5663;50.864;12.096;2023-02-25T05:43:27;97776.28;;;5.22;72.16
11212;BME280;5663;50.864;12.096;2023-02-25T05:45:56;97770.47;;;5.18;72.23
11212;BME280;5663;50.864;12.096;2023-02-25T05:48:25;97766.75;;;5.08;72.40
11212;BME280;5663;50.864;12.096;2023-02-25T05:50:59;97751.69;;;5.00;72.68
11212;BME280;5663;50.864;12.096;2023-02-25T05:53:27;97773.22;;;5.15;72.08
11212;BME280;5663;50.864;12.096;2023-02-25T05:55:55;97778.38;;;5.15;72.54
11212;BME280;5663;50.864;12.096;2023-02-25T05:58:23;97723.13;;;4.73;72.53
11212;BME280;5663;50.864;12.096;2023-02-25T06:00:52;97779.28;;;5.14;72.74
11212;BME280;5663;50.864;12.096;2023-02-25T06:03:20;97778.44;;;5.13;72.44
11212;BME280;5663;50.864;12.096;2023-02-25T06:05:49;97789.56;;;5.14;72.30
11212;BME280;5663;50.864;12.096;2023-02-25T06:08:18;97792.91;;;5.16;72.67
11212;BME280;5663;50.864;12.096;2023-02-25T06:10:45;97801.56;;;5.15;72.57
11212;BME280;5663;50.864;12.096;2023-02-25T06:13:13;97798.22;;;5.13;72.64
11212;BME280;5663;50.864;12.096;2023-02-25T06:15:41;97775.88;;;4.98;72.73
11212;BME280;5663;50.864;12.096;2023-02-25T06:18:10;97808.38;;;5.16;72.55
11212;BME280;5663;50.864;12.096;2023-02-25T06:20:38;97799.88;;;5.14;72.67
11212;BME280;5663;50.864;12.096;2023-02-25T06:23:06;97803.53;;;5.10;72.61
11212;BME280;5663;50.864;12.096;2023-02-25T06:25:34;97810.78;;;5.19;72.42
11212;BME280;5663;50.864;12.096;2023-02-25T06:28:02;97820.34;;;5.17;72.33
11212;BME280;5663;50.864;12.096;2023-02-25T06:30:30;97834.16;;;5.16;72.24
11212;BME280;5663;50.864;12.096;2023-02-25T06:32:58;97823.00;;;5.15;72.03
11212;BME280;5663;50.864;12.096;2023-02-25T06:35:28;97818.91;;;4.96;72.41
11212;BME280;5663;50.864;12.096;2023-02-25T06:37:56;97832.50;;;5.15;72.04
11212;BME280;5663;50.864;12.096;2023-02-25T06:40:25;97842.13;;;5.11;71.88
11212;BME280;5663;50.864;12.096;2023-02-25T06:42:53;97842.78;;;5.15;71.89
11212;BME280;5663;50.864;12.096;2023-02-25T06:45:21;97847.75;;;5.18;71.86
11212;BME280;5663;50.864;12.096;2023-02-25T06:47:49;97851.25;;;5.17;71.91
11212;BME280;5663;50.864;12.096;2023-02-25T06:50:17;97865.97;;;5.15;71.84
11212;BME280;5663;50.864;12.096;2023-02-25T06:52:47;97834.38;;;4.96;72.00
11212;BME280;5663;50.864;12.096;2023-02-25T06:55:14;97863.41;;;5.15;71.64
11212;BME280;5663;50.864;12.096;2023-02-25T06:57:42;97867.69;;;5.14;71.96
11212;BME280;5663;50.864;12.096;2023-02-25T07:00:11;97866.72;;;5.17;71.73
11212;BME280;5663;50.864;12.096;2023-02-25T07:02:39;97868.38;;;5.18;71.58
11212;BME280;5663;50.864;12.096;2023-02-25T07:05:07;97885.53;;;5.19;71.67
11212;BME280;5663;50.864;12.096;2023-02-25T07:07:35;97867.06;;;5.11;71.26
11212;BME280;5663;50.864;12.096;2023-02-25T07:10:05;97876.88;;;5.20;71.31
11212;BME280;5663;50.864;12.096;2023-02-25T07:12:33;97880.19;;;5.22;70.98
11212;BME280;5663;50.864;12.096;2023-02-25T07:15:03;97850.41;;;5.01;71.03
11212;BME280;5663;50.864;12.096;2023-02-25T07:17:31;97892.19;;;5.23;70.63
11212;BME280;5663;50.864;12.096;2023-02-25T07:19:59;97891.25;;;5.24;70.74
11212;BME280;5663;50.864;12.096;2023-02-25T07:22:27;97892.00;;;5.26;70.84
11212;BME280;5663;50.864;12.096;2023-02-25T07:24:55;97891.81;;;5.29;70.81
11212;BME280;5663;50.864;12.096;2023-02-25T07:27:24;97884.09;;;5.29;70.77
11212;BME280;5663;50.864;12.096;2023-02-25T07:29:52;97888.44;;;5.29;70.62
11212;BME280;5663;50.864;12.096;2023-02-25T07:32:22;97896.81;;;5.32;70.49
11212;BME280;5663;50.864;12.096;2023-02-25T07:34:50;97889.25;;;5.29;70.62
11212;BME280;5663;50.864;12.096;2023-02-25T07:37:18;97906.31;;;5.32;70.36
11212;BME280;5663;50.864;12.096;2023-02-25T07:39:46;97886.00;;;5.26;70.51
11212;BME280;5663;50.864;12.096;2023-02-25T07:42:14;97898.31;;;5.36;70.25
11212;BME280;5663;50.864;12.096;2023-02-25T07:44:43;97902.31;;;5.42;70.41
11212;BME280;5663;50.864;12.096;2023-02-25T07:47:11;97909.97;;;5.43;70.09
11212;BME280;5663;50.864;12.096;2023-02-25T07:49:39;97901.41;;;5.43;69.90
11212;BME280;5663;50.864;12.096;2023-02-25T07:52:07;97892.81;;;5.42;70.37
11212;BME280;5663;50.864;12.096;2023-02-25T07:54:35;97901.00;;;5.51;69.94
11212;BME280;5663;50.864;12.096;2023-02-25T07:57:03;97897.66;;;5.49;70.07
11212;BME280;5663;50.864;12.096;2023-02-25T07:59:31;97899.31;;;5.50;69.91
11212;BME280;5663;50.864;12.096;2023-02-25T08:02:00;97909.81;;;5.47;69.74
11212;BME280;5663;50.864;12.096;2023-02-25T08:04:28;97905.41;;;5.49;70.07
11212;BME280;5663;50.864;12.096;2023-02-25T08:06:56;97906.38;;;5.46;69.95
11212;BME280;5663;50.864;12.096;2023-02-25T08:09:23;97908.13;;;5.46;69.56
11212;BME280;5663;50.864;12.096;2023-02-25T08:11:51;97913.28;;;5.46;69.75
11212;BME280;5663;50.864;12.096;2023-02-25T08:14:19;97914.97;;;5.47;70.01
11212;BME280;5663;50.864;12.096;2023-02-25T08:16:48;97919.94;;;5.50;69.77
11212;BME280;5663;50.864;12.096;2023-02-25T08:19:17;97921.44;;;5.54;69.91
11212;BME280;5663;50.864;12.096;2023-02-25T08:21:45;97917.78;;;5.58;69.91
11212;BME280;5663;50.864;12.096;2023-02-25T08:24:13;97922.78;;;5.61;69.63
11212;BME280;5663;50.864;12.096;2023-02-25T08:26:41;97920.09;;;5.62;69.72
11212;BME280;5663;50.864;12.096;2023-02-25T08:29:08;97930.94;;;5.69;69.88
11212;BME280;5663;50.864;12.096;2023-02-25T08:31:36;97922.28;;;5.70;69.88
11212;BME280;5663;50.864;12.096;2023-02-25T08:34:04;97928.19;;;5.72;70.04
11212;BME280;5663;50.864;12.096;2023-02-25T08:36:34;97930.78;;;5.72;69.93
11212;BME280;5663;50.864;12.096;2023-02-25T08:39:04;97925.94;;;5.66;70.31
11212;BME280;5663;50.864;12.096;2023-02-25T08:41:32;97925.78;;;5.69;70.63
11212;BME280;5663;50.864;12.096;2023-02-25T08:44:00;97924.78;;;5.72;70.33
11212;BME280;5663;50.864;12.096;2023-02-25T08:46:30;97932.09;;;5.79;70.99
11212;BME280;5663;50.864;12.096;2023-02-25T08:48:59;97883.53;;;5.56;70.66
11212;BME280;5663;50.864;12.096;2023-02-25T08:51:27;97913.38;;;5.76;70.99
11212;BME280;5663;50.864;12.096;2023-02-25T08:54:01;97921.44;;;5.85;71.08
11212;BME280;5663;50.864;12.096;2023-02-25T08:56:30;97934.44;;;6.00;71.16
11212;BME280;5663;50.864;12.096;2023-02-25T08:58:58;97939.44;;;6.03;70.91
11212;BME280;5663;50.864;12.096;2023-02-25T09:01:26;97952.75;;;6.11;71.01
11212;BME280;5663;50.864;12.096;2023-02-25T09:04:10;97958.09;;;6.08;71.10
11212;BME280;5663;50.864;12.096;2023-02-25T09:06:38;97944.78;;;6.00;70.68
11212;BME280;5663;50.864;12.096;2023-02-25T09:09:08;97962.91;;;5.98;70.97
11212;BME280;5663;50.864;12.096;2023-02-25T09:11:36;97977.75;;;5.95;70.81
11212;BME280;5663;50.864;12.096;2023-02-25T09:14:05;97982.19;;;5.91;70.77
11212;BME280;5663;50.864;12.096;2023-02-25T09:16:33;97980.78;;;5.85;70.58
11212;BME280;5663;50.864;12.096;2023-02-25T09:19:01;97981.84;;;5.81;70.62
11212;BME280;5663;50.864;12.096;2023-02-25T09:21:29;97992.16;;;5.81;70.72
11212;BME280;5663;50.864;12.096;2023-02-25T09:23:57;97997.47;;;5.78;70.80
11212;BME280;5663;50.864;12.096;2023-02-25T09:26:26;98023.47;;;5.75;71.00
11212;BME280;5663;50.864;12.096;2023-02-25T09:28:54;98032.59;;;5.65;70.31
11212;BME280;5663;50.864;12.096;2023-02-25T09:31:24;98033.22;;;5.53;70.52
11212;BME280;5663;50.864;12.096;2023-02-25T09:33:51;98036.75;;;5.34;70.12
11212;BME280;5663;50.864;12.096;2023-02-25T09:36:20;98030.81;;;5.16;70.33
11212;BME280;5663;50.864;12.096;2023-02-25T09:38:49;98002.72;;;4.77;70.45
11212;BME280;5663;50.864;12.096;2023-02-25T09:41:32;98039.63;;;4.95;70.75
11212;BME280;5663;50.864;12.096;2023-02-25T09:44:04;98055.13;;;4.93;70.60
11212;BME280;5663;50.864;12.096;2023-02-25T09:46:37;98072.69;;;4.85;70.82
11212;BME280;5663;50.864;12.096;2023-02-25T09:49:14;98070.25;;;4.65;70.37
11212;BME280;5663;50.864;12.096;2023-02-25T09:51:49;97932.63;;;3.65;70.94
11212;BME280;5663;50.864;12.096;2023-02-25T09:54:22;98079.31;;;4.55;71.18
11212;BME280;5663;50.864;12.096;2023-02-25T09:56:54;98075.06;;;4.54;71.06
11212;BME280;5663;50.864;12.096;2023-02-25T09:59:26;98070.00;;;4.52;70.52
11212;BME280;5663;50.864;12.096;2023-02-25T10:01:58;98072.63;;;4.51;70.99
11212;BME280;5663;50.864;12.096;2023-02-25T10:04:32;98081.13;;;4.53;71.34
11212;BME280;5663;50.864;12.096;2023-02-25T10:07:10;98079.00;;;4.43;70.78
11212;BME280;5663;50.864;12.096;2023-02-25T10:09:48;98076.44;;;4.43;70.77
11212;BME280;5663;50.864;12.096;2023-02-25T10:12:29;98094.91;;;4.52;70.64
11212;BME280;5663;50.864;12.096;2023-02-25T10:15:15;98095.06;;;4.49;71.12
11212;BME280;5663;50.864;12.096;2023-02-25T10:18:01;98097.28;;;4.56;70.72
11212;BME280;5663;50.864;12.096;2023-02-25T10:20:41;98102.13;;;4.62;70.67
11212;BME280;5663;50.864;12.096;2023-02-25T10:23:21;98104.88;;;4.59;70.45
11212;BME280;5663;50.864;12.096;2023-02-25T10:25:57;98107.44;;;4.59;71.21
11212;BME280;5663;50.864;12.096;2023-02-25T10:28:30;98117.78;;;4.58;70.58
11212;BME280;5663;50.864;12.096;2023-02-25T10:31:02;98090.34;;;4.39;70.76
11212;BME280;5663;50.864;12.096;2023-02-25T10:33:35;98120.50;;;4.55;70.90
11212;BME280;5663;50.864;12.096;2023-02-25T10:36:08;98122.19;;;4.56;70.56
11212;BME280;5663;50.864;12.096;2023-02-25T10:38:41;98123.97;;;4.54;70.60
11212;BME280;5663;50.864;12.096;2023-02-25T10:41:11;98073.97;;;4.23;70.57
11212;BME280;5663;50.864;12.096;2023-02-25T10:43:41;98130.53;;;4.61;70.64
11212;BME280;5663;50.864;12.096;2023-02-25T10:46:12;98128.88;;;4.60;70.55
11212;BME280;5663;50.864;12.096;2023-02-25T10:48:44;98124.47;;;4.62;70.82
11212;BME280;5663;50.864;12.096;2023-02-25T10:51:15;98123.50;;;4.64;70.56
11212;BME280;5663;50.864;12.096;2023-02-25T10:54:01;98133.44;;;4.72;70.53
11212;BME280;5663;50.864;12.096;2023-02-25T10:56:32;98139.28;;;4.76;70.94
11212;BME280;5663;50.864;12.096;2023-02-25T10:59:09;98131.34;;;4.80;70.67
11212;BME280;5663;50.864;12.096;2023-02-25T11:01:49;98139.66;;;4.85;70.91
11212;BME280;5663;50.864;12.096;2023-02-25T11:04:20;98139.38;;;4.91;71.11
11212;BME280;5663;50.864;12.096;2023-02-25T11:06:49;98151.22;;;4.96;71.00
11212;BME280;5663;50.864;12.096;2023-02-25T11:09:31;98146.81;;;4.98;70.58
11212;BME280;5663;50.864;12.096;2023-02-25T11:12:13;98144.22;;;4.98;70.92
11212;BME280;5663;50.864;12.096;2023-02-25T11:14:45;98154.25;;;5.04;70.35
11212;BME280;5663;50.864;12.096;2023-02-25T11:17:16;98152.41;;;5.06;70.51
11212;BME280;5663;50.864;12.096;2023-02-25T11:19:46;98157.19;;;5.13;70.92
11212;BME280;5663;50.864;12.096;2023-02-25T11:22:18;98115.44;;;4.89;70.76
11212;BME280;5663;50.864;12.096;2023-02-25T11:24:54;98152.81;;;5.15;70.53
11212;BME280;5663;50.864;12.096;2023-02-25T11:27:35;98165.75;;;5.14;70.44
11212;BME280;5663;50.864;12.096;2023-02-25T11:30:13;98164.25;;;5.10;70.76
11212;BME280;5663;50.864;12.096;2023-02-25T11:32:46;98166.81;;;5.10;71.00
11212;BME280;5663;50.864;12.096;2023-02-25T11:35:20;98162.44;;;5.12;71.08
11212;BME280;5663;50.864;12.096;2023-02-25T11:37:54;98167.28;;;5.18;70.81
11212;BME280;5663;50.864;12.096;2023-02-25T11:40:25;98165.41;;;5.22;71.24
11212;BME280;5663;50.864;12.096;2023-02-25T11:45:50;98130.38;;;5.17;71.02
11212;BME280;5663;50.864;12.096;2023-02-25T11:48:23;98174.44;;;5.48;71.21
11212;BME280;5663;50.864;12.096;2023-02-25T11:51:07;98157.97;;;5.50;70.78
11212;BME280;5663;50.864;12.096;2023-02-25T11:56:34;98157.13;;;5.50;70.85
11212;BME280;5663;50.864;12.096;2023-02-25T11:59:13;98155.47;;;5.49;70.99
11212;BME280;5663;50.864;12.096;2023-02-25T12:01:59;98156.53;;;5.44;70.77
11212;BME280;5663;50.864;12.096;2023-02-25T12:07:49;98172.25;;;5.40;70.91
11212;BME280;5663;50.864;12.096;2023-02-25T12:10:39;98161.38;;;5.33;70.96
11212;BME280;5663;50.864;12.096;2023-02-25T12:13:34;98123.34;;;5.04;71.19
11212;BME280;5663;50.864;12.096;2023-02-25T12:16:32;98171.56;;;5.36;71.12
11212;BME280;5663;50.864;12.096;2023-02-25T12:19:28;98170.88;;;5.33;71.37
11212;BME280;5663;50.864;12.096;2023-02-25T12:25:23;98167.91;;;5.40;71.48
11212;BME280;5663;50.864;12.096;2023-02-25T12:28:09;98168.44;;;5.47;71.56
11212;BME280;5663;50.864;12.096;2023-02-25T12:31:11;98152.66;;;5.53;70.88
11212;BME280;5663;50.864;12.096;2023-02-25T12:34:01;98085.00;;;5.15;71.11
11212;BME280;5663;50.864;12.096;2023-02-25T12:36:55;98163.72;;;5.73;71.33
11212;BME280;5663;50.864;12.096;2023-02-25T12:42:26;98163.69;;;6.07;71.04
11212;BME280;5663;50.864;12.096;2023-02-25T12:45:32;98155.38;;;6.18;70.38
11212;BME280;5663;50.864;12.096;2023-02-25T12:48:29;98165.03;;;6.30;70.74
11212;BME280;5663;50.864;12.096;2023-02-25T12:54:17;98167.16;;;6.39;70.60
11212;BME280;5663;50.864;12.096;2023-02-25T12:57:02;98170.81;;;6.35;70.28
11212;BME280;5663;50.864;12.096;2023-02-25T12:59:48;98159.66;;;6.19;70.33
11212;BME280;5663;50.864;12.096;2023-02-25T13:02:45;98177.38;;;6.25;69.89
11212;BME280;5663;50.864;12.096;2023-02-25T13:08:51;98189.44;;;5.91;69.27
11212;BME280;5663;50.864;12.096;2023-02-25T13:11:31;98191.72;;;5.80;69.93
11212;BME280;5663;50.864;12.096;2023-02-25T13:14:25;98197.94;;;5.76;69.85
11212;BME280;5663;50.864;12.096;2023-02-25T13:17:13;98196.56;;;5.69;69.91
11212;BME280;5663;50.864;12.096;2023-02-25T13:23:03;98223.84;;;5.38;70.27
11212;BME280;5663;50.864;12.096;2023-02-25T13:25:47;98228.03;;;5.24;70.18
11212;BME280;5663;50.864;12.096;2023-02-25T13:28:34;98226.44;;;5.02;69.54
11212;BME280;5663;50.864;12.096;2023-02-25T13:31:17;98195.50;;;4.66;70.05
11212;BME280;5663;50.864;12.096;2023-02-25T13:33:58;98230.50;;;4.70;70.21
11212;BME280;5663;50.864;12.096;2023-02-25T13:36:44;98233.28;;;4.65;70.51
11212;BME280;5663;50.864;12.096;2023-02-25T13:39:31;98238.16;;;4.53;70.24
11212;BME280;5663;50.864;12.096;2023-02-25T13:42:18;98236.13;;;4.40;69.98
11212;BME280;5663;50.864;12.096;2023-02-25T13:45:25;98224.56;;;4.30;70.07
11212;BME280;5663;50.864;12.096;2023-02-25T13:48:04;98236.34;;;4.36;70.58
11212;BME280;5663;50.864;12.096;2023-02-25T13:50:49;98234.81;;;4.32;70.45
11212;BME280;5663;50.864;12.096;2023-02-25T13:53:39;98233.97;;;4.31;71.06
11212;BME280;5663;50.864;12.096;2023-02-25T13:56:36;98253.38;;;4.38;70.67
11212;BME280;5663;50.864;12.096;2023-02-25T13:59:17;98256.84;;;4.37;71.07
11212;BME280;5663;50.864;12.096;2023-02-25T14:02:05;98240.00;;;4.30;70.61
11212;BME280;5663;50.864;12.096;2023-02-25T14:05:12;98229.50;;;4.16;70.94
11212;BME280;5663;50.864;12.096;2023-02-25T14:08:01;98256.97;;;4.34;70.81
11212;BME280;5663;50.864;12.096;2023-02-25T14:10:43;98255.94;;;4.38;70.32
11212;BME280;5663;50.864;12.096;2023-02-25T14:16:14;98260.63;;;4.49;70.42
11212;BME280;5663;50.864;12.096;2023-02-25T14:18:58;98254.53;;;4.52;70.55